sensor_id;sensor_type;location;lat;lon;timestamp;pressure;altitude;pressure_sealevel;temperature;humidity
76603;BME280;65075;48.390;17.598;2024-02-04T00:01:43;100245.81;;;11.05;60.63
76603;BME280;65075;48.390;17.598;2024-02-04T00:04:09;100251.03;;;10.84;61.78
76603;BME280;65075;48.390;17.598;2024-02-04T00:06:34;100267.22;;;11.13;61.25
76603;BME280;65075;48.390;17.598;2024-02-04T00:09:00;100258.00;;;10.97;61.19
76603;BME280;65075;48.390;17.598;2024-02-04T00:11:25;100260.13;;;11.97;58.52
76603;BME280;65075;48.390;17.598;2024-02-04T00:13:51;100250.69;;;11.78;58.56
76603;BME280;65075;48.390;17.598;2024-02-04T00:16:17;100252.38;;;10.60;61.74
76603;BME280;65075;48.390;17.598;2024-02-04T00:18:43;100255.66;;;10.41;63.37
76603;BME280;65075;48.390;17.598;2024-02-04T00:21:09;100244.06;;;10.33;63.91
76603;BME280;65075;48.390;17.598;2024-02-04T00:23:34;100221.41;;;10.50;62.85
76603;BME280;65075;48.390;17.598;2024-02-04T00:26:00;100249.91;;;10.20;64.74
76603;BME280;65075;48.390;17.598;2024-02-04T00:28:25;100256.25;;;11.34;60.42
76603;BME280;65075;48.390;17.598;2024-02-04T00:30:53;100252.09;;;10.40;63.90
76603;BME280;65075;48.390;17.598;2024-02-04T00:33:21;100224.72;;;11.80;59.47
76603;BME280;65075;48.390;17.598;2024-02-04T00:35:48;100250.38;;;10.34;64.03
76603;BME280;65075;48.390;17.598;2024-02-04T00:38:14;100248.97;;;10.53;63.70
76603;BME280;65075;48.390;17.598;2024-02-04T00:40:39;100239.53;;;10.82;63.33
76603;BME280;65075;48.390;17.598;2024-02-04T00:43:05;100249.28;;;12.54;58.66
76603;BME280;65075;48.390;17.598;2024-02-04T00:45:30;100259.09;;;12.50;57.45
76603;BME280;65075;48.390;17.598;2024-02-04T00:47:56;100241.88;;;11.44;60.47
76603;BME280;65075;48.390;17.598;2024-02-04T00:50:22;100243.75;;;10.90;62.44
76603;BME280;65075;48.390;17.598;2024-02-04T00:52:47;100214.28;;;11.72;59.71
76603;BME280;65075;48.390;17.598;2024-02-04T00:55:13;100230.22;;;11.85;59.16
76603;BME280;65075;48.390;17.598;2024-02-04T00:57:38;100219.84;;;11.02;62.47
76603;BME280;65075;48.390;17.598;2024-02-04T01:00:04;100221.31;;;11.10;61.89
76603;BME280;65075;48.390;17.598;2024-02-04T01:02:31;100228.53;;;12.58;57.30
76603;BME280;65075;48.390;17.598;2024-02-04T01:04:56;100237.03;;;12.20;58.65
76603;BME280;65075;48.390;17.598;2024-02-04T01:07:22;100239.50;;;11.26;60.78
76603;BME280;65075;48.390;17.598;2024-02-04T01:09:47;100233.56;;;11.92;59.38
76603;BME280;65075;48.390;17.598;2024-02-04T01:12:13;100212.72;;;11.81;59.52
76603;BME280;65075;48.390;17.598;2024-02-04T01:14:39;100220.41;;;11.31;61.16
76603;BME280;65075;48.390;17.598;2024-02-04T01:17:04;100216.63;;;10.83;62.58
76603;BME280;65075;48.390;17.598;2024-02-04T01:19:30;100209.31;;;10.89;62.89
76603;BME280;65075;48.390;17.598;2024-02-04T01:21:55;100202.97;;;11.95;58.84
76603;BME280;65075;48.390;17.598;2024-02-04T01:24:21;100203.78;;;11.32;60.82
76603;BME280;65075;48.390;17.598;2024-02-04T01:26:46;100203.13;;;12.16;58.15
76603;BME280;65075;48.390;17.598;2024-02-04T01:29:12;100198.22;;;12.28;57.99
76603;BME280;65075;48.390;17.598;2024-02-04T01:31:37;100199.09;;;11.60;59.82
76603;BME280;65075;48.390;17.598;2024-02-04T01:34:03;100171.78;;;11.60;59.57
76603;BME280;65075;48.390;17.598;2024-02-04T01:36:28;100201.56;;;12.35;57.42
76603;BME280;65075;48.390;17.598;2024-02-04T01:38:55;100185.34;;;12.75;56.94
76603;BME280;65075;48.390;17.598;2024-02-04T01:41:21;100167.72;;;11.67;59.27
76603;BME280;65075;48.390;17.598;2024-02-04T01:43:47;100182.00;;;12.11;60.23
76603;BME280;65075;48.390;17.598;2024-02-04T01:46:13;100187.50;;;12.73;57.38
76603;BME280;65075;48.390;17.598;2024-02-04T01:48:39;100174.75;;;12.32;58.51
76603;BME280;65075;48.390;17.598;2024-02-04T01:51:05;100175.75;;;11.79;59.66
76603;BME280;65075;48.390;17.598;2024-02-04T01:53:34;100175.88;;;10.99;62.98
76603;BME280;65075;48.390;17.598;2024-02-04T01:55:59;100163.09;;;11.36;61.07
76603;BME280;65075;48.390;17.598;2024-02-04T01:58:25;100182.88;;;11.48;61.95
76603;BME280;65075;48.390;17.598;2024-02-04T02:00:51;100175.47;;;11.17;62.82
76603;BME280;65075;48.390;17.598;2024-02-04T02:03:18;100171.91;;;10.03;65.73
76603;BME280;65075;48.390;17.598;2024-02-04T02:05:45;100194.19;;;10.33;65.92
76603;BME280;65075;48.390;17.598;2024-02-04T02:08:12;100173.88;;;10.46;66.66
76603;BME280;65075;48.390;17.598;2024-02-04T02:10:37;100185.09;;;10.49;66.17
76603;BME280;65075;48.390;17.598;2024-02-04T02:13:14;100186.81;;;10.55;66.23
76603;BME280;65075;48.390;17.598;2024-02-04T02:15:48;100178.03;;;10.53;66.66
76603;BME280;65075;48.390;17.598;2024-02-04T02:23:52;100174.06;;;10.39;67.42
76603;BME280;65075;48.390;17.598;2024-02-04T02:26:20;100172.09;;;10.13;68.19
76603;BME280;65075;48.390;17.598;2024-02-04T02:28:46;100158.84;;;10.05;68.63
76603;BME280;65075;48.390;17.598;2024-02-04T02:31:12;100151.09;;;9.97;68.88
76603;BME280;65075;48.390;17.598;2024-02-04T02:33:37;100171.41;;;10.06;68.63
76603;BME280;65075;48.390;17.598;2024-02-04T02:36:11;100140.00;;;10.20;68.43
76603;BME280;65075;48.390;17.598;2024-02-04T02:38:54;100164.63;;;10.47;67.53
76603;BME280;65075;48.390;17.598;2024-02-04T02:41:25;100163.59;;;9.93;69.36
76603;BME280;65075;48.390;17.598;2024-02-04T02:43:52;100120.59;;;9.78;69.05
76603;BME280;65075;48.390;17.598;2024-02-04T02:46:19;100178.00;;;10.10;68.94
76603;BME280;65075;48.390;17.598;2024-02-04T02:48:45;100177.28;;;9.98;69.35
76603;BME280;65075;48.390;17.598;2024-02-04T02:51:11;100158.09;;;10.09;69.09
76603;BME280;65075;48.390;17.598;2024-02-04T02:53:36;100140.63;;;10.49;67.66
76603;BME280;65075;48.390;17.598;2024-02-04T02:56:02;100137.16;;;9.76;69.73
76603;BME280;65075;48.390;17.598;2024-02-04T02:58:28;100155.84;;;10.23;68.11
76603;BME280;65075;48.390;17.598;2024-02-04T03:00:53;100143.50;;;9.99;68.89
76603;BME280;65075;48.390;17.598;2024-02-04T03:03:19;100153.63;;;9.82;69.87
76603;BME280;65075;48.390;17.598;2024-02-04T03:05:44;100107.09;;;9.50;69.42
76603;BME280;65075;48.390;17.598;2024-02-04T03:08:10;100167.91;;;10.27;67.75
76603;BME280;65075;48.390;17.598;2024-02-04T03:10:35;100147.03;;;9.99;68.45
76603;BME280;65075;48.390;17.598;2024-02-04T03:13:01;100174.97;;;10.06;68.22
76603;BME280;65075;48.390;17.598;2024-02-04T03:15:27;100177.16;;;10.26;68.18
76603;BME280;65075;48.390;17.598;2024-02-04T03:17:53;100173.75;;;10.57;67.07
76603;BME280;65075;48.390;17.598;2024-02-04T03:20:18;100179.91;;;10.69;67.36
76603;BME280;65075;48.390;17.598;2024-02-04T03:22:45;100165.06;;;10.00;68.18
76603;BME280;65075;48.390;17.598;2024-02-04T03:25:11;100161.66;;;9.93;69.05
76603;BME280;65075;48.390;17.598;2024-02-04T03:27:39;100158.13;;;9.93;68.91
76603;BME280;65075;48.390;17.598;2024-02-04T03:30:05;100170.00;;;10.63;66.21
76603;BME280;65075;48.390;17.598;2024-02-04T03:32:31;100149.38;;;9.91;68.45
76603;BME280;65075;48.390;17.598;2024-02-04T03:35:02;100160.63;;;9.77;69.78
76603;BME280;65075;48.390;17.598;2024-02-04T03:37:29;100156.09;;;9.66;70.01
76603;BME280;65075;48.390;17.598;2024-02-04T03:39:55;100164.13;;;10.76;65.34
76603;BME280;65075;48.390;17.598;2024-02-04T03:42:20;100164.81;;;9.85;68.74
76603;BME280;65075;48.390;17.598;2024-02-04T03:44:47;100165.81;;;9.96;68.81
76603;BME280;65075;48.390;17.598;2024-02-04T03:47:13;100136.56;;;10.51;65.98
76603;BME280;65075;48.390;17.598;2024-02-04T03:49:39;100159.19;;;9.92;68.46
76603;BME280;65075;48.390;17.598;2024-02-04T03:52:05;100168.38;;;11.47;63.89
76603;BME280;65075;48.390;17.598;2024-02-04T03:54:30;100122.47;;;9.77;68.13
76603;BME280;65075;48.390;17.598;2024-02-04T03:56:56;100138.66;;;10.66;65.93
76603;BME280;65075;48.390;17.598;2024-02-04T03:59:22;100140.91;;;10.47;66.16
76603;BME280;65075;48.390;17.598;2024-02-04T04:01:51;100149.88;;;10.69;65.84
76603;BME280;65075;48.390;17.598;2024-02-04T04:04:19;100152.13;;;10.12;67.57
76603;BME280;65075;48.390;17.598;2024-02-04T04:06:45;100160.66;;;10.59;66.12
76603;BME280;65075;48.390;17.598;2024-02-04T04:09:12;100154.69;;;10.19;67.06
76603;BME280;65075;48.390;17.598;2024-02-04T04:11:38;100141.28;;;9.79;67.83
76603;BME280;65075;48.390;17.598;2024-02-04T04:14:05;100135.47;;;10.09;67.17
76603;BME280;65075;48.390;17.598;2024-02-04T04:16:31;100143.75;;;10.36;66.53
76603;BME280;65075;48.390;17.598;2024-02-04T04:18:56;100136.38;;;10.36;66.55
76603;BME280;65075;48.390;17.598;2024-02-04T04:21:24;100143.81;;;10.41;66.27
76603;BME280;65075;48.390;17.598;2024-02-04T04:23:49;100139.75;;;10.43;66.13
76603;BME280;65075;48.390;17.598;2024-02-04T04:26:15;100150.00;;;10.58;65.68
76603;BME280;65075;48.390;17.598;2024-02-04T04:28:41;100143.50;;;10.37;66.02
76603;BME280;65075;48.390;17.598;2024-02-04T04:31:06;100139.56;;;10.50;66.32
76603;BME280;65075;48.390;17.598;2024-02-04T04:33:32;100089.66;;;9.89;67.21
76603;BME280;65075;48.390;17.598;2024-02-04T04:35:57;100135.88;;;10.39;66.36
76603;BME280;65075;48.390;17.598;2024-02-04T04:38:23;100135.81;;;10.34;66.67
76603;BME280;65075;48.390;17.598;2024-02-04T04:40:48;100116.88;;;10.06;67.17
76603;BME280;65075;48.390;17.598;2024-02-04T04:43:14;100128.06;;;10.69;66.12
76603;BME280;65075;48.390;17.598;2024-02-04T04:45:40;100140.13;;;10.30;66.90
76603;BME280;65075;48.390;17.598;2024-02-04T04:48:06;100135.69;;;10.24;66.42
76603;BME280;65075;48.390;17.598;2024-02-04T04:50:33;100147.56;;;10.34;66.98
76603;BME280;65075;48.390;17.598;2024-02-04T04:52:59;100141.59;;;10.38;66.09
76603;BME280;65075;48.390;17.598;2024-02-04T04:55:24;100163.78;;;10.08;67.73
76603;BME280;65075;48.390;17.598;2024-02-04T04:57:50;100159.50;;;10.12;67.81
76603;BME280;65075;48.390;17.598;2024-02-04T05:00:17;100155.91;;;10.28;67.04
76603;BME280;65075;48.390;17.598;2024-02-04T05:02:43;100160.47;;;10.22;67.50
76603;BME280;65075;48.390;17.598;2024-02-04T05:05:10;100161.91;;;10.73;65.76
76603;BME280;65075;48.390;17.598;2024-02-04T05:07:37;100151.22;;;10.45;67.13
76603;BME280;65075;48.390;17.598;2024-02-04T05:10:02;100156.88;;;10.60;66.85
76603;BME280;65075;48.390;17.598;2024-02-04T05:12:30;100153.31;;;10.38;67.33
76603;BME280;65075;48.390;17.598;2024-02-04T05:14:56;100133.22;;;10.22;67.35
76603;BME280;65075;48.390;17.598;2024-02-04T05:17:21;100167.91;;;10.27;68.07
76603;BME280;65075;48.390;17.598;2024-02-04T05:19:47;100112.88;;;9.92;69.04
76603;BME280;65075;48.390;17.598;2024-02-04T05:22:13;100159.13;;;10.25;68.37
76603;BME280;65075;48.390;17.598;2024-02-04T05:24:38;100138.47;;;10.29;67.24
76603;BME280;65075;48.390;17.598;2024-02-04T05:27:04;100160.59;;;10.54;67.27
76603;BME280;65075;48.390;17.598;2024-02-04T05:29:31;100161.31;;;10.23;68.57
76603;BME280;65075;48.390;17.598;2024-02-04T05:31:56;100169.63;;;10.33;67.57
76603;BME280;65075;48.390;17.598;2024-02-04T05:34:22;100165.78;;;10.12;68.60
76603;BME280;65075;48.390;17.598;2024-02-04T05:36:47;100163.00;;;10.07;68.95
76603;BME280;65075;48.390;17.598;2024-02-04T05:39:14;100169.19;;;10.41;67.92
76603;BME280;65075;48.390;17.598;2024-02-04T05:41:41;100164.78;;;10.62;67.02
76603;BME280;65075;48.390;17.598;2024-02-04T05:44:07;100163.38;;;11.08;66.71
76603;BME280;65075;48.390;17.598;2024-02-04T05:46:38;100169.44;;;9.85;70.49
76603;BME280;65075;48.390;17.598;2024-02-04T05:49:04;100173.22;;;10.17;69.28
76603;BME280;65075;48.390;17.598;2024-02-04T05:51:40;100173.34;;;10.70;67.52
76603;BME280;65075;48.390;17.598;2024-02-04T05:54:07;100188.06;;;10.26;68.78
76603;BME280;65075;48.390;17.598;2024-02-04T05:56:33;100169.38;;;10.34;68.19
76603;BME280;65075;48.390;17.598;2024-02-04T05:58:58;100180.88;;;10.58;68.11
76603;BME280;65075;48.390;17.598;2024-02-04T06:01:24;100178.69;;;10.60;67.68
76603;BME280;65075;48.390;17.598;2024-02-04T06:03:49;100189.09;;;11.12;66.70
76603;BME280;65075;48.390;17.598;2024-02-04T06:06:16;100177.81;;;10.33;68.07
76603;BME280;65075;48.390;17.598;2024-02-04T06:08:43;100171.22;;;10.29;67.93
76603;BME280;65075;48.390;17.598;2024-02-04T06:11:12;100164.81;;;10.18;68.09
76603;BME280;65075;48.390;17.598;2024-02-04T06:13:43;100196.84;;;10.71;67.28
76603;BME280;65075;48.390;17.598;2024-02-04T06:16:10;100183.38;;;10.43;67.12
76603;BME280;65075;48.390;17.598;2024-02-04T06:18:38;100202.94;;;10.35;67.79
76603;BME280;65075;48.390;17.598;2024-02-04T06:21:04;100215.16;;;10.32;67.88
76603;BME280;65075;48.390;17.598;2024-02-04T06:23:29;100223.22;;;10.87;66.21
76603;BME280;65075;48.390;17.598;2024-02-04T06:25:55;100224.53;;;10.58;66.90
76603;BME280;65075;48.390;17.598;2024-02-04T06:28:21;100228.81;;;10.54;67.09
76603;BME280;65075;48.390;17.598;2024-02-04T06:30:47;100204.38;;;10.21;67.78
76603;BME280;65075;48.390;17.598;2024-02-04T06:33:13;100196.25;;;10.26;67.61
76603;BME280;65075;48.390;17.598;2024-02-04T06:35:38;100198.41;;;10.24;67.98
76603;BME280;65075;48.390;17.598;2024-02-04T06:38:05;100156.75;;;10.12;67.06
76603;BME280;65075;48.390;17.598;2024-02-04T06:40:30;100192.56;;;10.59;67.31
76603;BME280;65075;48.390;17.598;2024-02-04T06:42:56;100199.03;;;10.31;67.96
76603;BME280;65075;48.390;17.598;2024-02-04T06:45:21;100192.25;;;10.99;65.56
76603;BME280;65075;48.390;17.598;2024-02-04T06:47:47;100196.59;;;11.00;65.40
76603;BME280;65075;48.390;17.598;2024-02-04T06:50:14;100198.72;;;10.93;65.48
76603;BME280;65075;48.390;17.598;2024-02-04T06:52:40;100200.88;;;10.90;65.61
76603;BME280;65075;48.390;17.598;2024-02-04T06:55:07;100209.81;;;11.98;61.95
76603;BME280;65075;48.390;17.598;2024-02-04T06:57:33;100201.00;;;11.91;60.89
76603;BME280;65075;48.390;17.598;2024-02-04T06:59:58;100201.38;;;13.84;56.14
76603;BME280;65075;48.390;17.598;2024-02-04T07:02:24;100188.56;;;12.67;58.84
76603;BME280;65075;48.390;17.598;2024-02-04T07:04:49;100195.88;;;11.99;60.85
76603;BME280;65075;48.390;17.598;2024-02-04T07:07:15;100220.03;;;12.59;60.19
76603;BME280;65075;48.390;17.598;2024-02-04T07:09:40;100207.69;;;13.34;56.25
76603;BME280;65075;48.390;17.598;2024-02-04T07:12:06;100214.56;;;12.59;58.45
76603;BME280;65075;48.390;17.598;2024-02-04T07:14:34;100215.97;;;12.20;60.22
76603;BME280;65075;48.390;17.598;2024-02-04T07:17:01;100159.31;;;11.42;61.88
76603;BME280;65075;48.390;17.598;2024-02-04T07:19:29;100222.00;;;12.74;58.99
76603;BME280;65075;48.390;17.598;2024-02-04T07:21:55;100205.03;;;12.20;59.76
76603;BME280;65075;48.390;17.598;2024-02-04T07:24:21;100175.53;;;13.04;57.31
76603;BME280;65075;48.390;17.598;2024-02-04T07:26:48;100186.41;;;12.12;59.43
76603;BME280;65075;48.390;17.598;2024-02-04T07:29:15;100200.19;;;11.90;60.92
76603;BME280;65075;48.390;17.598;2024-02-04T07:31:42;100203.28;;;12.51;59.49
76603;BME280;65075;48.390;17.598;2024-02-04T07:34:09;100207.31;;;12.95;57.78
76603;BME280;65075;48.390;17.598;2024-02-04T07:36:36;100174.44;;;11.81;61.37
76603;BME280;65075;48.390;17.598;2024-02-04T07:39:03;100203.19;;;12.36;59.49
76603;BME280;65075;48.390;17.598;2024-02-04T07:41:31;100189.50;;;11.25;62.43
76603;BME280;65075;48.390;17.598;2024-02-04T07:43:57;100205.00;;;12.67;59.37
76603;BME280;65075;48.390;17.598;2024-02-04T07:46:24;100208.91;;;11.56;62.33
76603;BME280;65075;48.390;17.598;2024-02-04T07:48:51;100187.38;;;12.43;59.78
76603;BME280;65075;48.390;17.598;2024-02-04T07:51:24;100189.88;;;13.62;55.98
76603;BME280;65075;48.390;17.598;2024-02-04T07:53:51;100214.28;;;14.14;53.42
76603;BME280;65075;48.390;17.598;2024-02-04T07:56:17;100217.78;;;13.08;57.56
76603;BME280;65075;48.390;17.598;2024-02-04T07:58:44;100213.75;;;13.56;56.26
76603;BME280;65075;48.390;17.598;2024-02-04T08:01:11;100212.00;;;13.10;57.34
76603;BME280;65075;48.390;17.598;2024-02-04T08:03:38;100197.03;;;13.58;56.41
76603;BME280;65075;48.390;17.598;2024-02-04T08:06:05;100157.53;;;12.41;59.18
76603;BME280;65075;48.390;17.598;2024-02-04T08:08:31;100201.16;;;13.55;56.43
76603;BME280;65075;48.390;17.598;2024-02-04T08:10:58;100194.19;;;13.07;57.71
76603;BME280;65075;48.390;17.598;2024-02-04T08:13:25;100197.53;;;13.14;57.53
76603;BME280;65075;48.390;17.598;2024-02-04T08:15:51;100192.78;;;12.95;57.20
76603;BME280;65075;48.390;17.598;2024-02-04T08:18:17;100185.50;;;13.86;54.64
76603;BME280;65075;48.390;17.598;2024-02-04T08:20:44;100182.63;;;12.90;56.73
76603;BME280;65075;48.390;17.598;2024-02-04T08:23:11;100186.88;;;13.48;55.68
76603;BME280;65075;48.390;17.598;2024-02-04T08:25:38;100180.56;;;13.33;55.46
76603;BME280;65075;48.390;17.598;2024-02-04T08:28:04;100185.50;;;13.66;55.61
76603;BME280;65075;48.390;17.598;2024-02-04T08:30:31;100178.88;;;13.16;55.92
76603;BME280;65075;48.390;17.598;2024-02-04T08:32:58;100186.88;;;13.68;55.71
76603;BME280;65075;48.390;17.598;2024-02-04T08:35:25;100180.56;;;13.53;55.84
76603;BME280;65075;48.390;17.598;2024-02-04T08:37:51;100187.16;;;13.52;56.34
76603;BME280;65075;48.390;17.598;2024-02-04T08:40:18;100197.16;;;12.96;56.54
76603;BME280;65075;48.390;17.598;2024-02-04T08:42:45;100179.88;;;12.80;57.64
76603;BME280;65075;48.390;17.598;2024-02-04T08:45:12;100176.56;;;12.16;59.62
76603;BME280;65075;48.390;17.598;2024-02-04T08:47:39;100178.09;;;12.44;58.63
76603;BME280;65075;48.390;17.598;2024-02-04T08:50:06;100200.31;;;12.57;58.05
76603;BME280;65075;48.390;17.598;2024-02-04T08:52:34;100181.34;;;12.41;58.50
76603;BME280;65075;48.390;17.598;2024-02-04T08:55:01;100191.47;;;12.35;59.45
76603;BME280;65075;48.390;17.598;2024-02-04T08:57:31;100207.03;;;12.92;57.31
76603;BME280;65075;48.390;17.598;2024-02-04T08:59:58;100204.16;;;13.74;56.03
76603;BME280;65075;48.390;17.598;2024-02-04T09:02:26;100193.47;;;13.72;54.18
76603;BME280;65075;48.390;17.598;2024-02-04T09:04:53;100200.28;;;14.15;52.90
76603;BME280;65075;48.390;17.598;2024-02-04T09:07:20;100213.97;;;13.19;55.85
76603;BME280;65075;48.390;17.598;2024-02-04T09:09:47;100203.69;;;12.80;56.46
76603;BME280;65075;48.390;17.598;2024-02-04T09:12:14;100214.03;;;13.65;53.92
76603;BME280;65075;48.390;17.598;2024-02-04T09:14:45;100202.50;;;13.73;53.98
76603;BME280;65075;48.390;17.598;2024-02-04T09:17:12;100208.53;;;13.30;54.62
76603;BME280;65075;48.390;17.598;2024-02-04T09:19:40;100219.28;;;15.40;49.17
76603;BME280;65075;48.390;17.598;2024-02-04T09:22:11;100214.31;;;13.84;53.72
76603;BME280;65075;48.390;17.598;2024-02-04T09:24:36;100201.25;;;12.93;56.11
76603;BME280;65075;48.390;17.598;2024-02-04T09:27:03;100216.22;;;13.58;54.48
76603;BME280;65075;48.390;17.598;2024-02-04T09:29:30;100192.63;;;13.82;54.26
76603;BME280;65075;48.390;17.598;2024-02-04T09:31:58;100188.19;;;13.10;55.59
76603;BME280;65075;48.390;17.598;2024-02-04T09:34:25;100188.56;;;14.79;52.06
76603;BME280;65075;48.390;17.598;2024-02-04T09:36:52;100197.53;;;14.05;53.13
76603;BME280;65075;48.390;17.598;2024-02-04T09:39:20;100224.91;;;14.51;51.15
76603;BME280;65075;48.390;17.598;2024-02-04T09:41:46;100232.03;;;14.62;51.72
76603;BME280;65075;48.390;17.598;2024-02-04T09:44:15;100215.03;;;15.14;49.65
76603;BME280;65075;48.390;17.598;2024-02-04T09:46:42;100226.59;;;13.26;53.66
76603;BME280;65075;48.390;17.598;2024-02-04T09:49:09;100228.25;;;14.43;51.82
76603;BME280;65075;48.390;17.598;2024-02-04T09:51:40;100204.66;;;14.26;51.84
76603;BME280;65075;48.390;17.598;2024-02-04T09:54:10;100211.44;;;12.98;55.00
76603;BME280;65075;48.390;17.598;2024-02-04T09:56:38;100211.47;;;13.08;54.85
76603;BME280;65075;48.390;17.598;2024-02-04T09:59:04;100191.50;;;13.23;54.29
76603;BME280;65075;48.390;17.598;2024-02-04T10:01:31;100221.66;;;13.28;53.79
76603;BME280;65075;48.390;17.598;2024-02-04T10:03:58;100208.16;;;13.06;55.22
76603;BME280;65075;48.390;17.598;2024-02-04T10:06:25;100202.81;;;12.64;55.79
76603;BME280;65075;48.390;17.598;2024-02-04T10:08:53;100200.25;;;13.14;55.16
76603;BME280;65075;48.390;17.598;2024-02-04T10:11:19;100171.47;;;14.18;52.72
76603;BME280;65075;48.390;17.598;2024-02-04T10:13:50;100174.53;;;13.41;54.46
76603;BME280;65075;48.390;17.598;2024-02-04T10:16:17;100147.94;;;13.76;52.98
76603;BME280;65075;48.390;17.598;2024-02-04T10:18:45;100142.91;;;14.14;51.94
76603;BME280;65075;48.390;17.598;2024-02-04T10:23:44;100153.00;;;14.39;51.22
76603;BME280;65075;48.390;17.598;2024-02-04T10:26:11;100143.16;;;14.38;50.84
76603;BME280;65075;48.390;17.598;2024-02-04T10:28:38;100154.38;;;14.31;51.55
76603;BME280;65075;48.390;17.598;2024-02-04T10:31:11;100142.44;;;13.61;52.78
76603;BME280;65075;48.390;17.598;2024-02-04T10:33:38;100150.88;;;13.04;54.14
76603;BME280;65075;48.390;17.598;2024-02-04T10:36:05;100142.19;;;13.12;53.96
76603;BME280;65075;48.390;17.598;2024-02-04T10:38:32;100142.75;;;13.60;52.87
76603;BME280;65075;48.390;17.598;2024-02-04T10:41:03;100146.59;;;13.44;53.69
76603;BME280;65075;48.390;17.598;2024-02-04T10:43:33;100136.13;;;13.10;54.57
76603;BME280;65075;48.390;17.598;2024-02-04T10:46:19;100145.94;;;14.32;51.37
76603;BME280;65075;48.390;17.598;2024-02-04T10:48:59;100125.66;;;14.03;51.92
76603;BME280;65075;48.390;17.598;2024-02-04T10:51:27;100129.59;;;13.47;53.06
76603;BME280;65075;48.390;17.598;2024-02-04T10:53:55;100126.41;;;12.62;55.34
76603;BME280;65075;48.390;17.598;2024-02-04T10:56:37;100128.34;;;12.67;55.79
76603;BME280;65075;48.390;17.598;2024-02-04T10:59:06;100121.19;;;12.56;55.67
76603;BME280;65075;48.390;17.598;2024-02-04T11:01:35;100124.66;;;13.24;53.79
76603;BME280;65075;48.390;17.598;2024-02-04T11:04:04;100098.75;;;14.15;52.64
76603;BME280;65075;48.390;17.598;2024-02-04T11:06:32;100116.09;;;13.75;53.29
76603;BME280;65075;48.390;17.598;2024-02-04T11:09:01;100100.75;;;12.84;55.44
76603;BME280;65075;48.390;17.598;2024-02-04T11:11:30;100100.25;;;13.22;55.12
76603;BME280;65075;48.390;17.598;2024-02-04T11:14:01;100089.16;;;12.46;56.98
76603;BME280;65075;48.390;17.598;2024-02-04T11:25:46;100099.09;;;12.83;56.36
76603;BME280;65075;48.390;17.598;2024-02-04T11:28:15;100082.78;;;12.26;58.01
76603;BME280;65075;48.390;17.598;2024-02-04T11:30:43;100097.72;;;12.85;56.58
76603;BME280;65075;48.390;17.598;2024-02-04T11:33:17;100112.25;;;12.86;55.71
76603;BME280;65075;48.390;17.598;2024-02-04T11:35:45;100099.97;;;13.34;55.56
76603;BME280;65075;48.390;17.598;2024-02-04T11:38:11;100100.53;;;13.41;54.56
76603;BME280;65075;48.390;17.598;2024-02-04T11:40:41;100102.72;;;13.18;55.72
76603;BME280;65075;48.390;17.598;2024-02-04T11:43:10;100101.56;;;13.04;56.12
76603;BME280;65075;48.390;17.598;2024-02-04T11:45:43;100096.16;;;13.09;56.36
76603;BME280;65075;48.390;17.598;2024-02-04T11:48:11;100090.13;;;13.38;55.90
76603;BME280;65075;48.390;17.598;2024-02-04T11:50:39;100100.91;;;14.23;54.03
76603;BME280;65075;48.390;17.598;2024-02-04T11:53:11;100084.00;;;12.65;57.78
76603;BME280;65075;48.390;17.598;2024-02-04T11:55:41;100081.28;;;12.80;57.51
76603;BME280;65075;48.390;17.598;2024-02-04T11:58:08;100092.50;;;13.90;53.92
76603;BME280;65075;48.390;17.598;2024-02-04T12:00:45;100091.72;;;13.59;54.91
76603;BME280;65075;48.390;17.598;2024-02-04T12:03:12;100089.78;;;12.89;56.59
76603;BME280;65075;48.390;17.598;2024-02-04T12:05:39;100087.25;;;12.62;57.58
76603;BME280;65075;48.390;17.598;2024-02-04T12:08:08;100079.88;;;12.57;58.10
76603;BME280;65075;48.390;17.598;2024-02-04T12:10:36;100074.97;;;12.70;57.72
76603;BME280;65075;48.390;17.598;2024-02-04T12:13:06;100070.38;;;13.26;56.76
76603;BME280;65075;48.390;17.598;2024-02-04T12:15:38;100073.66;;;13.58;55.60
76603;BME280;65075;48.390;17.598;2024-02-04T12:18:12;100055.53;;;12.76;58.06
76603;BME280;65075;48.390;17.598;2024-02-04T12:20:39;100069.47;;;13.75;55.94
76603;BME280;65075;48.390;17.598;2024-02-04T12:23:07;100063.75;;;13.01;57.47
76603;BME280;65075;48.390;17.598;2024-02-04T12:25:34;100062.13;;;12.90;57.32
76603;BME280;65075;48.390;17.598;2024-02-04T12:28:02;100051.75;;;13.17;57.24
76603;BME280;65075;48.390;17.598;2024-02-04T12:30:32;100037.66;;;13.80;54.96
76603;BME280;65075;48.390;17.598;2024-02-04T12:33:03;100018.81;;;12.67;58.69
76603;BME280;65075;48.390;17.598;2024-02-04T12:35:31;100030.66;;;13.18;57.24
76603;BME280;65075;48.390;17.598;2024-02-04T12:38:00;100017.94;;;13.67;54.78
76603;BME280;65075;48.390;17.598;2024-02-04T12:40:31;100016.72;;;13.09;57.08
76603;BME280;65075;48.390;17.598;2024-02-04T12:43:01;100013.34;;;13.48;55.90
76603;BME280;65075;48.390;17.598;2024-02-04T12:45:29;100000.22;;;12.79;57.78
76603;BME280;65075;48.390;17.598;2024-02-04T12:47:56;100001.34;;;13.08;57.64
76603;BME280;65075;48.390;17.598;2024-02-04T12:50:25;99982.44;;;12.77;58.37
76603;BME280;65075;48.390;17.598;2024-02-04T12:53:08;99996.94;;;13.23;57.17
76603;BME280;65075;48.390;17.598;2024-02-04T12:55:38;99972.03;;;12.63;58.04
76603;BME280;65075;48.390;17.598;2024-02-04T12:58:07;99967.94;;;12.66;58.24